createdAt,value
2019-04-19T00:02:15.053Z,19.77
2019-04-19T00:07:24.136Z,20.20
2019-04-19T00:12:39.947Z,20.83
2019-04-19T00:17:35.473Z,21.10
2019-04-19T00:23:04.286Z,21.70
2019-04-19T00:27:59.915Z,21.30
2019-04-19T00:33:25.080Z,20.23
2019-04-19T00:38:36.898Z,20.63
2019-04-19T00:43:58.924Z,20.30
2019-04-19T00:49:02.826Z,22.13
2019-04-19T00:54:11.890Z,20.97
2019-04-19T00:59:10.175Z,21.33
2019-04-19T01:04:18.810Z,21.50
2019-04-19T01:09:34.483Z,22.57
2019-04-19T01:14:36.382Z,22.77
2019-04-19T01:19:32.635Z,24.63
2019-04-19T01:24:42.878Z,22.97
2019-04-19T01:29:48.704Z,21.20
2019-04-19T01:34:57.921Z,21.37
2019-04-19T01:40:14.915Z,22.20
2019-04-19T01:45:41.819Z,20.57
2019-04-19T01:51:03.327Z,21.00
2019-04-19T01:56:02.833Z,22.10
2019-04-19T02:01:12.417Z,21.80
2019-04-19T02:06:16.279Z,23.70
2019-04-19T02:11:51.366Z,20.60
2019-04-19T02:16:55.923Z,22.17
2019-04-19T02:22:02.072Z,23.07
2019-04-19T02:27:09.128Z,20.97
2019-04-19T02:32:41.063Z,21.37
2019-04-19T02:37:49.309Z,23.80
2019-04-19T02:42:51.376Z,24.73
2019-04-19T02:47:57.826Z,25.83
2019-04-19T02:53:14.478Z,23.67
2019-04-19T03:08:10.421Z,23.57
2019-04-19T03:13:35.377Z,22.27
2019-04-19T03:18:52.164Z,21.03
2019-04-19T03:23:44.995Z,21.87
2019-04-19T03:28:46.423Z,21.93
2019-04-19T03:34:16.264Z,21.43
2019-04-19T03:39:17.901Z,22.93
2019-04-19T03:44:29.240Z,28.67
2019-04-19T03:49:37.200Z,22.33
2019-04-19T03:54:39.167Z,22.03
2019-04-19T03:59:33.411Z,20.37
2019-04-19T04:04:38.851Z,22.50
2019-04-19T04:09:57.845Z,22.77
2019-04-19T04:15:37.013Z,29.40
2019-04-19T04:20:28.569Z,23.70
2019-04-19T04:25:44.128Z,27.73
2019-04-19T04:30:57.566Z,21.27
2019-04-19T04:36:15.645Z,26.53
2019-04-19T04:41:05.648Z,26.67
2019-04-19T04:46:48.562Z,31.07
2019-04-19T04:51:52.641Z,30.77
2019-04-19T04:56:59.194Z,27.30
2019-04-19T05:02:04.558Z,27.93
2019-04-19T05:07:25.691Z,25.67
2019-04-19T05:12:43.526Z,22.70
2019-04-19T05:22:43.047Z,21.67
2019-04-19T05:27:55.301Z,21.83
2019-04-19T05:32:54.924Z,21.20
2019-04-19T05:38:08.465Z,23.17
2019-04-19T05:43:44.847Z,20.80
2019-04-19T05:48:24.659Z,22.00
2019-04-19T05:53:27.809Z,22.57
2019-04-19T05:58:39.657Z,22.33
2019-04-19T06:03:48.497Z,22.60
2019-04-19T06:08:40.478Z,21.93
2019-04-19T06:13:57.129Z,23.43
2019-04-19T06:19:16.639Z,21.93
2019-04-19T06:24:30.142Z,22.83
2019-04-19T06:29:41.223Z,24.63
2019-04-19T06:34:39.951Z,22.57
2019-04-19T06:39:28.765Z,23.63
2019-04-19T06:44:56.096Z,23.40
2019-04-19T06:49:41.775Z,23.57
2019-04-19T06:54:48.130Z,23.97
2019-04-19T07:00:07.575Z,26.97
2019-04-19T07:05:15.231Z,21.87
2019-04-19T07:10:39.708Z,21.87
2019-04-19T07:15:44.199Z,21.63
2019-04-19T07:20:33.692Z,20.13
2019-04-19T07:25:54.472Z,19.53
2019-04-19T07:30:37.415Z,18.90
2019-04-19T07:36:00.624Z,19.73
2019-04-19T07:41:29.307Z,20.50
2019-04-19T07:46:38.393Z,21.07
2019-04-19T07:51:34.172Z,21.30
2019-04-19T07:56:48.465Z,19.97
2019-04-19T08:12:19.001Z,19.12
2019-04-19T08:27:26.876Z,21.48
2019-04-19T08:32:27.847Z,21.57
2019-04-19T08:37:37.818Z,19.12
2019-04-19T08:42:54.123Z,18.60
2019-04-19T08:48:11.898Z,17.52
2019-04-19T08:53:26.784Z,18.13
2019-04-19T08:58:39.851Z,17.80
2019-04-19T09:03:49.285Z,19.12
2019-04-19T09:08:46.242Z,16.85
2019-04-19T09:14:02.302Z,18.93
2019-04-19T09:19:12.361Z,17.35
2019-04-19T09:24:01.912Z,18.65
2019-04-19T09:29:29.321Z,17.10
2019-04-19T09:34:13.255Z,17.15
2019-04-19T09:39:44.590Z,18.65
2019-04-19T09:44:46.095Z,15.57
2019-04-19T09:50:01.468Z,16.07
2019-04-19T09:55:15.362Z,15.70
2019-04-19T10:00:08.850Z,15.43
2019-04-19T10:05:09.690Z,15.30
2019-04-19T10:10:16.183Z,15.43
2019-04-19T10:15:40.540Z,14.78
2019-04-19T10:21:09.984Z,14.90
2019-04-19T10:26:24.333Z,15.28
2019-04-19T10:31:39.744Z,14.80
2019-04-19T10:36:47.700Z,14.63
2019-04-19T10:41:52.273Z,14.60
2019-04-19T10:46:58.763Z,14.13
2019-04-19T10:52:10.452Z,15.03
2019-04-19T10:57:21.272Z,14.75
2019-04-19T11:02:36.691Z,13.60
2019-04-19T11:07:43.647Z,14.25
2019-04-19T11:13:08.804Z,14.10
2019-04-19T11:18:14.355Z,13.60
2019-04-19T11:23:21.793Z,14.33
2019-04-19T11:28:27.185Z,15.32
2019-04-19T11:33:34.931Z,14.40
2019-04-19T11:38:41.206Z,15.57
2019-04-19T11:43:47.655Z,16.25
2019-04-19T11:48:52.892Z,16.40
2019-04-19T11:53:59.226Z,16.30
2019-04-19T11:59:08.888Z,15.72
2019-04-19T12:04:14.399Z,15.72
2019-04-19T12:09:22.682Z,16.00
2019-04-19T12:14:29.554Z,17.27
2019-04-19T12:19:45.297Z,16.87
2019-04-19T12:24:42.835Z,16.73
2019-04-19T12:29:51.389Z,16.12
2019-04-19T12:34:55.418Z,16.05
2019-04-19T12:40:01.072Z,16.63
2019-04-19T12:45:10.181Z,18.07
2019-04-19T12:50:17.952Z,18.25
2019-04-19T12:55:24.107Z,16.80
2019-04-19T13:00:56.304Z,15.75
2019-04-19T13:06:01.789Z,18.27
2019-04-19T13:11:07.658Z,16.05
2019-04-19T13:16:12.902Z,17.35
2019-04-19T13:21:19.867Z,16.15
2019-04-19T13:26:25.324Z,17.60
2019-04-19T13:31:31.113Z,16.73
2019-04-19T13:36:51.339Z,16.50
2019-04-19T13:42:05.193Z,16.30
2019-04-19T13:47:10.992Z,15.30
2019-04-19T13:52:16.653Z,16.25
2019-04-19T13:57:23.724Z,16.10
2019-04-19T14:02:29.427Z,15.55
2019-04-19T14:07:34.896Z,15.60
2019-04-19T14:12:40.997Z,15.80
2019-04-19T14:17:46.010Z,16.20
2019-04-19T14:22:51.872Z,16.67
2019-04-19T14:27:57.610Z,17.53
2019-04-19T14:33:04.172Z,16.02
2019-04-19T14:38:11.804Z,17.20
2019-04-19T14:43:20.532Z,17.55
2019-04-19T14:48:36.888Z,18.53
2019-04-19T14:53:42.826Z,20.65
2019-04-19T14:58:48.377Z,16.95
2019-04-19T15:03:57.043Z,18.80
2019-04-19T15:09:05.834Z,18.17
2019-04-19T15:14:14.522Z,18.70
2019-04-19T15:19:23.106Z,16.25
2019-04-19T15:24:28.622Z,17.48
2019-04-19T15:29:34.695Z,16.40
2019-04-19T15:34:40.773Z,16.10
2019-04-19T15:39:47.936Z,16.45
2019-04-19T15:44:55.254Z,15.72
2019-04-19T15:50:02.298Z,15.05
2019-04-19T15:55:14.203Z,15.25
2019-04-19T16:00:27.908Z,16.10
2019-04-19T16:05:44.442Z,15.80
2019-04-19T16:11:08.886Z,16.70
2019-04-19T16:16:16.454Z,15.40
2019-04-19T16:21:31.246Z,16.35
2019-04-19T16:26:31.015Z,17.33
2019-04-19T16:31:38.218Z,16.80
2019-04-19T16:36:45.442Z,17.85
2019-04-19T16:41:51.110Z,16.45
2019-04-19T16:46:59.304Z,15.98
2019-04-19T16:52:04.918Z,16.57
2019-04-19T16:57:20.759Z,15.13
2019-04-19T17:02:20.248Z,17.00
2019-04-19T17:07:26.824Z,16.87
2019-04-19T17:12:32.764Z,16.45
2019-04-19T17:17:46.813Z,16.35
2019-04-19T17:22:58.691Z,16.75
2019-04-19T17:28:05.123Z,16.52
2019-04-19T17:33:10.492Z,18.43
2019-04-19T17:38:26.918Z,17.30
2019-04-19T17:43:23.607Z,17.57
2019-04-19T17:48:30.439Z,16.35
2019-04-19T17:53:42.322Z,17.45
2019-04-19T17:58:42.614Z,17.32
2019-04-19T18:03:58.814Z,16.55
2019-04-19T18:09:12.801Z,16.85
2019-04-19T18:14:14.227Z,16.87
2019-04-19T18:19:26.347Z,16.65
2019-04-19T18:24:29.727Z,15.67
2019-04-19T18:29:37.983Z,16.63
2019-04-19T18:34:45.710Z,18.73
2019-04-19T18:39:54.369Z,19.60
2019-04-19T18:45:02.675Z,19.60
2019-04-19T18:50:08.625Z,17.73
2019-04-19T18:55:20.814Z,17.95
2019-04-19T19:00:22.216Z,18.80
2019-04-19T19:05:28.082Z,18.45
2019-04-19T19:10:43.630Z,19.20
2019-04-19T19:15:48.182Z,18.57
2019-04-19T19:20:55.810Z,18.97
2019-04-19T19:26:10.601Z,20.43
2019-04-19T19:31:04.938Z,19.85
2019-04-19T19:36:12.463Z,18.42
2019-04-19T19:41:29.875Z,19.10
2019-04-19T19:46:51.257Z,18.30
2019-04-19T19:51:47.752Z,17.97
2019-04-19T19:57:08.293Z,17.52
2019-04-19T20:02:05.936Z,17.00
2019-04-19T20:07:06.129Z,23.55
2019-04-19T20:12:32.974Z,20.05
2019-04-19T20:17:38.768Z,17.35
2019-04-19T20:22:45.279Z,16.63
2019-04-19T20:27:51.730Z,18.23
2019-04-19T20:32:59.133Z,17.77
2019-04-19T20:38:07.286Z,18.73
2019-04-19T20:43:25.380Z,22.27
2019-04-19T20:48:20.674Z,17.12
2019-04-19T21:14:09.278Z,20.27
2019-04-19T21:19:14.419Z,19.98
2019-04-19T21:24:20.461Z,19.80
2019-04-19T21:29:30.192Z,22.90
2019-04-19T21:34:36.494Z,20.17
2019-04-19T21:39:44.887Z,20.02
2019-04-19T21:44:51.641Z,21.45
2019-04-19T21:49:57.070Z,19.50
2019-04-19T21:55:12.493Z,20.80
2019-04-19T22:00:21.153Z,17.00
2019-04-19T22:05:30.611Z,17.57
2019-04-19T22:10:39.941Z,17.60
2019-04-19T22:15:44.200Z,16.15
2019-04-19T22:20:54.114Z,16.65
2019-04-19T22:26:09.629Z,16.90
2019-04-19T22:31:12.517Z,17.70
2019-04-19T22:36:19.548Z,18.87
2019-04-19T22:41:26.837Z,18.12
2019-04-19T22:46:39.121Z,19.40
2019-04-19T22:51:40.599Z,19.43
2019-04-19T22:56:58.588Z,17.00
2019-04-19T23:02:10.311Z,17.50
2019-04-19T23:07:16.755Z,18.00
2019-04-19T23:12:22.703Z,19.00
2019-04-19T23:17:34.884Z,21.40
2019-04-19T23:22:40.665Z,22.60
2019-04-19T23:27:49.015Z,23.00
2019-04-19T23:32:50.335Z,22.00
2019-04-19T23:37:55.601Z,23.80
2019-04-19T23:43:33.599Z,22.17
2019-04-19T23:48:33.630Z,19.57
2019-04-19T23:53:42.820Z,19.60
2019-04-19T23:58:46.587Z,24.45
